RJEO(METAR)
05/27 14:00
RJEO 270500Z 31017KT CAVOK 13/09 Q1012 RMK A2990=
戻る
トップページへ戻る
IMOC Co,.Ltd.